Date,TemperatureHighF,TemperatureAvgF,TemperatureLowF,DewpointHighF,DewpointAvgF,DewpointLowF,HumidityHigh,HumidityAvg,HumidityLow,PressureMaxIn,PressureMinIn,WindSpeedMaxMPH,WindSpeedAvgMPH,GustSpeedMaxMPH,PrecipitationSumIn
2013-3-1,41.0,36.3,31.0,37.0,33.5,25.0,100,91,74,29.79,29.60,18,3,19,0.09
2013-3-2,36.0,31.0,25.0,28.0,24.8,17.0,89,81,68,29.79,29.72,17,5,18,0.00
2013-3-3,32.0,26.7,22.0,26.0,20.8,17.0,94,82,70,29.79,29.70,22,6,26,0.00
2013-3-4,31.0,29.2,26.0,25.0,22.7,21.0,89,80,72,30.06,29.76,29,7,29,0.00
2013-3-5,41.0,33.9,30.0,29.0,26.0,22.0,91,76,62,30.10,29.93,16,5,17,0.00
2013-3-6,44.0,36.9,31.0,35.0,28.8,24.0,93,76,61,30.14,30.04,26,6,27,0.00
2013-3-7,38.0,34.6,30.0,34.0,28.6,23.0,100,82,59,30.18,30.11,18,6,21,0.03
2013-3-8,41.0,33.2,28.0,37.0,29.4,23.0,100,89,65,30.37,30.12,18,6,19,0.13
2013-3-9,52.0,36.6,26.0,28.0,26.2,22.0,93,71,41,30.39,30.29,14,3,14,0.14
2013-3-10,55.0,41.7,24.0,35.0,28.9,22.0,99,67,35,30.39,30.19,19,5,22,0.00
2013-3-11,54.0,46.8,38.0,50.0,39.4,33.0,88,76,60,30.26,29.88,26,8,30,0.00
2013-3-12,55.0,47.9,35.0,55.0,45.8,30.0,100,93,81,30.00,29.67,24,6,25,1.37
2013-3-13,47.0,39.2,32.0,36.0,27.5,14.0,88,67,41,29.89,29.78,19,5,23,0.00
2013-3-14,34.0,27.5,22.0,25.0,14.4,8.0,73,60,52,29.97,29.84,27,8,32,0.00
2013-3-15,39.0,31.5,22.0,32.0,21.4,11.0,94,69,52,29.96,29.65,17,4,20,0.00
2013-3-16,36.0,30.5,21.0,28.0,17.3,12.0,91,61,45,30.09,29.77,14,4,16,0.00
2013-3-17,35.0,28.5,18.0,18.0,10.8,6.0,73,51,35,30.48,29.94,21,5,26,0.00
2013-3-18,39.0,29.2,17.0,31.0,15.3,6.0,100,63,31,30.48,29.88,18,3,19,0.00
2013-3-19,36.0,31.1,21.0,36.0,30.9,21.0,100,100,97,30.09,29.70,16,2,16,0.01
2013-3-20,37.0,29.4,17.0,28.0,22.6,15.0,100,80,51,29.83,29.77,20,3,21,0.08
2013-3-21,36.0,28.7,17.0,24.0,15.6,10.0,99,64,39,29.83,29.65,15,3,19,0.14
2013-3-22,36.0,30.8,21.0,28.0,22.8,13.0,90,76,59,29.84,29.70,23,4,27,0.04
2013-3-23,40.0,35.3,31.0,28.0,23.8,21.0,88,67,50,29.91,29.78,29,7,29,0.10
2013-3-24,44.0,37.6,31.0,27.0,24.5,23.0,83,62,47,29.92,29.70,15,4,16,0.02
2013-3-25,45.0,39.0,31.0,33.0,28.0,25.0,86,68,49,29.78,29.51,15,4,18,0.00
2013-3-26,48.0,40.1,30.0,33.0,26.2,20.0,88,62,36,29.87,29.60,17,3,17,0.00
2013-3-27,51.0,41.7,30.0,36.0,30.3,23.0,90,67,45,30.00,29.84,23,5,25,0.00
2013-3-28,49.0,43.1,38.0,40.0,35.0,30.0,89,74,59,30.14,29.94,19,4,19,0.00
2013-3-29,51.0,44.0,32.0,36.0,33.1,28.0,92,67,47,30.15,30.06,19,4,21,0.00
2013-3-30,55.0,44.7,30.0,37.0,27.2,21.0,92,56,32,30.16,30.06,23,3,24,0.00
2013-3-31,57.0,45.2,29.0,43.0,33.0,25.0,100,68,35,30.13,29.63,27,5,29,0.11